Time,TemperatureF,DewpointF,PressureIn,WindDirection,WindDirectionDegrees,WindSpeedMPH,WindSpeedGustMPH,Humidity,HourlyPrecipIn,Conditions,Clouds,dailyrainin,SoftwareType,DateUTC
2013-09-27 00:10:00,75.0,71.0,29.87,NE,49,0.0,0.0,86,0.00,,,0.00,weatherlink.com 1.10,2013-09-27 04:10:00,
2013-09-27 00:25:00,74.4,70.0,29.87,North,353,0.0,0.0,87,0.00,,,0.00,weatherlink.com 1.10,2013-09-27 04:25:00,
2013-09-27 00:40:00,74.1,70.0,29.88,NNE,26,0.0,0.0,87,0.00,,,0.00,weatherlink.com 1.10,2013-09-27 04:40:00,
2013-09-27 00:55:00,73.5,70.0,29.88,NNE,18,0.0,0.0,87,0.00,,,0.00,weatherlink.com 1.10,2013-09-27 04:55:00,
2013-09-27 01:10:00,73.0,69.0,29.88,NE,39,0.0,0.0,88,0.00,,,0.00,weatherlink.com 1.10,2013-09-27 05:10:00,
2013-09-27 01:25:00,72.7,69.0,29.88,NNE,33,0.0,0.0,88,0.00,,,0.00,weatherlink.com 1.10,2013-09-27 05:25:00,
2013-09-27 01:40:00,72.4,69.0,29.88,NE,44,0.0,0.0,89,0.00,,,0.00,weatherlink.com 1.10,2013-09-27 05:40:00,
2013-09-27 01:55:00,72.0,69.0,29.88,NE,44,0.0,0.0,89,0.00,,,0.00,weatherlink.com 1.10,2013-09-27 05:55:00,
2013-09-27 02:10:00,71.4,68.0,29.88,North,354,0.0,0.0,90,0.00,,,0.00,weatherlink.com 1.10,2013-09-27 06:10:00,
2013-09-27 02:25:00,70.9,68.0,29.88,North,354,0.0,0.0,91,0.00,,,0.00,weatherlink.com 1.10,2013-09-27 06:25:00,
2013-09-27 02:40:00,70.6,68.0,29.88,NNW,344,0.0,0.0,91,0.00,,,0.00,weatherlink.com 1.10,2013-09-27 06:40:00,
2013-09-27 02:55:00,70.4,68.0,29.87,NNW,347,0.0,0.0,92,0.00,,,0.00,weatherlink.com 1.10,2013-09-27 06:55:00,
2013-09-27 03:10:00,70.8,68.0,29.87,NNW,337,0.0,0.0,92,0.00,,,0.00,weatherlink.com 1.10,2013-09-27 07:10:00,
2013-09-27 03:25:00,70.9,69.0,29.87,NNE,12,0.0,0.0,92,0.00,,,0.00,weatherlink.com 1.10,2013-09-27 07:25:00,
2013-09-27 03:40:00,70.8,68.0,29.87,NNE,33,0.0,0.0,92,0.00,,,0.00,weatherlink.com 1.10,2013-09-27 07:40:00,
2013-09-27 03:55:00,70.6,68.0,29.86,NNW,338,0.0,0.0,92,0.00,,,0.00,weatherlink.com 1.10,2013-09-27 07:55:00,
2013-09-27 04:10:00,70.5,68.0,29.86,NNW,342,0.0,0.0,92,0.00,,,0.00,weatherlink.com 1.10,2013-09-27 08:10:00,
2013-09-27 04:25:00,70.2,68.0,29.86,NW,321,0.0,0.0,92,0.00,,,0.00,weatherlink.com 1.10,2013-09-27 08:25:00,
2013-09-27 04:40:00,70.2,68.0,29.86,NNW,343,0.0,0.0,92,0.00,,,0.00,weatherlink.com 1.10,2013-09-27 08:40:00,
2013-09-27 04:55:00,70.5,68.0,29.86,NW,320,0.0,0.0,92,0.00,,,0.00,weatherlink.com 1.10,2013-09-27 08:55:00,
2013-09-27 05:10:00,70.5,68.0,29.86,NNW,341,0.0,0.0,92,0.00,,,0.00,weatherlink.com 1.10,2013-09-27 09:10:00,
2013-09-27 05:26:00,70.5,68.0,29.87,NNW,331,0.0,0.0,92,0.00,,,0.00,weatherlink.com 1.10,2013-09-27 09:26:00,
2013-09-27 05:40:00,70.6,68.0,29.87,NW,320,0.0,0.0,92,0.00,,,0.00,weatherlink.com 1.10,2013-09-27 09:40:00,
2013-09-27 05:55:00,70.6,68.0,29.87,North,359,0.0,0.0,92,0.00,,,0.00,weatherlink.com 1.10,2013-09-27 09:55:00,
2013-09-27 06:10:00,70.7,68.0,29.88,North,357,0.0,0.0,92,0.00,,,0.00,weatherlink.com 1.10,2013-09-27 10:10:00,
2013-09-27 06:25:00,70.7,68.0,29.88,NE,41,0.0,0.0,92,0.00,,,0.00,weatherlink.com 1.10,2013-09-27 10:25:00,
2013-09-27 06:40:00,70.7,68.0,29.88,NNE,22,0.0,0.0,92,0.00,,,0.00,weatherlink.com 1.10,2013-09-27 10:40:00,
2013-09-27 06:56:00,70.7,68.0,29.89,North,354,0.0,0.0,92,0.00,,,0.00,weatherlink.com 1.10,2013-09-27 10:56:00,
2013-09-27 07:11:00,70.8,68.0,29.90,North,356,0.0,0.0,92,0.00,,,0.00,weatherlink.com 1.10,2013-09-27 11:11:00,
2013-09-27 07:26:00,70.7,68.0,29.90,NNE,27,0.0,0.0,92,0.00,,,0.00,weatherlink.com 1.10,2013-09-27 11:26:00,
2013-09-27 07:41:00,70.8,68.0,29.90,NNW,347,0.0,0.0,92,0.00,,,0.00,weatherlink.com 1.10,2013-09-27 11:41:00,
2013-09-27 07:56:00,71.0,69.0,29.91,North,356,0.0,0.0,92,0.00,,,0.00,weatherlink.com 1.10,2013-09-27 11:56:00,
2013-09-27 08:11:00,70.8,68.0,29.91,NNW,333,0.0,0.0,92,0.00,,,0.00,weatherlink.com 1.10,2013-09-27 12:11:00,
2013-09-27 08:26:00,71.0,69.0,29.92,NW,304,0.0,0.0,92,0.00,,,0.00,weatherlink.com 1.10,2013-09-27 12:26:00,
2013-09-27 08:41:00,71.2,69.0,29.92,NNW,328,0.0,0.0,92,0.00,,,0.00,weatherlink.com 1.10,2013-09-27 12:41:00,
2013-09-27 08:56:00,71.5,69.0,29.93,NNW,331,0.0,0.0,92,0.00,,,0.00,weatherlink.com 1.10,2013-09-27 12:56:00,
2013-09-27 09:11:00,71.7,69.0,29.93,NNW,339,0.0,0.0,92,0.00,,,0.00,weatherlink.com 1.10,2013-09-27 13:11:00,
2013-09-27 09:26:00,72.0,70.0,29.93,NNW,335,0.0,0.0,92,0.00,,,0.00,weatherlink.com 1.10,2013-09-27 13:26:00,
2013-09-27 09:41:00,72.2,70.0,29.93,NW,314,0.0,0.0,92,0.00,,,0.00,weatherlink.com 1.10,2013-09-27 13:41:00,
2013-09-27 09:56:00,72.2,70.0,29.93,WNW,301,0.0,0.0,92,0.00,,,0.00,weatherlink.com 1.10,2013-09-27 13:56:00,
2013-09-27 10:11:00,72.3,70.0,29.93,NW,309,0.0,0.0,91,0.00,,,0.00,weatherlink.com 1.10,2013-09-27 14:11:00,
2013-09-27 10:26:00,72.6,70.0,29.94,WNW,295,0.0,0.0,91,0.00,,,0.00,weatherlink.com 1.10,2013-09-27 14:26:00,
2013-09-27 10:41:00,73.0,70.0,29.94,NW,310,0.0,0.0,91,0.00,,,0.00,weatherlink.com 1.10,2013-09-27 14:41:00,
2013-09-27 10:56:00,73.5,71.0,29.94,NNW,335,0.0,0.0,90,0.00,,,0.00,weatherlink.com 1.10,2013-09-27 14:56:00,
2013-09-27 11:11:00,74.1,71.0,29.93,North,349,0.0,0.0,89,0.00,,,0.00,weatherlink.com 1.10,2013-09-27 15:11:00,
2013-09-27 11:26:00,74.5,71.0,29.94,NW,320,0.0,0.0,89,0.00,,,0.00,weatherlink.com 1.10,2013-09-27 15:26:00,
2013-09-27 11:41:00,74.8,71.0,29.93,NNW,339,0.0,0.0,88,0.00,,,0.00,weatherlink.com 1.10,2013-09-27 15:41:00,
2013-09-27 11:56:00,75.7,72.0,29.93,NNE,26,0.0,0.0,87,0.00,,,0.00,weatherlink.com 1.10,2013-09-27 15:56:00,
2013-09-27 12:11:00,78.0,73.0,29.92,NNE,15,0.0,0.0,85,0.00,,,0.00,weatherlink.com 1.10,2013-09-27 16:11:00,
2013-09-27 12:41:00,80.7,74.0,29.91,NE,34,0.0,0.0,81,0.00,,,0.00,weatherlink.com 1.10,2013-09-27 16:41:00,
2013-09-27 12:56:00,81.7,73.0,29.91,NNW,347,0.0,0.0,76,0.00,,,0.00,weatherlink.com 1.10,2013-09-27 16:56:00,
2013-09-27 13:11:00,82.4,74.0,29.90,NW,307,8.0,12.0,75,0.00,,,0.00,weatherlink.com 1.10,2013-09-27 17:11:00,
2013-09-27 13:26:00,81.6,73.0,29.90,NE,44,8.0,12.0,75,0.00,,,0.00,weatherlink.com 1.10,2013-09-27 17:26:00,
2013-09-27 13:41:00,82.9,74.0,29.89,North,8,5.0,14.0,74,0.00,,,0.00,weatherlink.com 1.10,2013-09-27 17:41:00,
2013-09-27 13:56:00,82.3,73.0,29.89,NNE,28,4.0,13.0,73,0.00,,,0.00,weatherlink.com 1.10,2013-09-27 17:56:00,
2013-09-27 14:11:00,82.4,73.0,29.89,NE,39,6.0,14.0,73,0.00,,,0.00,weatherlink.com 1.10,2013-09-27 18:11:00,
2013-09-27 14:26:00,82.6,73.0,29.88,NNE,13,6.0,12.0,72,0.00,,,0.00,weatherlink.com 1.10,2013-09-27 18:26:00,
2013-09-27 14:41:00,81.5,73.0,29.88,NNE,20,6.0,10.0,74,0.00,,,0.00,weatherlink.com 1.10,2013-09-27 18:41:00,
2013-09-27 14:56:00,82.2,74.0,29.87,NNE,27,2.0,9.0,75,0.00,,,0.00,weatherlink.com 1.10,2013-09-27 18:56:00,
2013-09-27 15:12:00,83.6,73.0,29.87,North,8,2.0,10.0,70,0.00,,,0.00,weatherlink.com 1.10,2013-09-27 19:12:00,
2013-09-27 15:27:00,81.6,73.0,29.87,ENE,77,1.0,16.0,74,0.00,,,0.00,weatherlink.com 1.10,2013-09-27 19:27:00,
2013-09-27 15:42:00,80.4,71.0,29.87,NE,39,5.0,11.0,74,0.00,,,0.00,weatherlink.com 1.10,2013-09-27 19:42:00,
2013-09-27 15:57:00,81.0,72.0,29.87,NNE,24,1.0,8.0,74,0.00,,,0.00,weatherlink.com 1.10,2013-09-27 19:57:00,
2013-09-27 16:12:00,81.0,72.0,29.87,NNE,20,2.0,8.0,73,0.00,,,0.00,weatherlink.com 1.10,2013-09-27 20:12:00,
2013-09-27 16:27:00,80.8,72.0,29.87,North,8,6.0,10.0,75,0.00,,,0.00,weatherlink.com 1.10,2013-09-27 20:27:00,
2013-09-27 16:42:00,80.4,71.0,29.87,NE,39,5.0,10.0,74,0.00,,,0.00,weatherlink.com 1.10,2013-09-27 20:42:00,
2013-09-27 16:57:00,80.6,72.0,29.87,NNE,32,1.0,7.0,74,0.00,,,0.00,weatherlink.com 1.10,2013-09-27 20:57:00,
2013-09-27 17:12:00,81.1,72.0,29.87,NNE,32,2.0,6.0,73,0.00,,,0.00,weatherlink.com 1.10,2013-09-27 21:12:00,
2013-09-27 17:27:00,81.1,72.0,29.88,NE,51,3.0,11.0,73,0.00,,,0.00,weatherlink.com 1.10,2013-09-27 21:27:00,
2013-09-27 17:42:00,80.5,72.0,29.88,NNW,327,3.0,9.0,74,0.00,,,0.00,weatherlink.com 1.10,2013-09-27 21:42:00,
2013-09-27 17:57:00,80.7,72.0,29.88,NNW,340,3.0,5.0,74,0.00,,,0.00,weatherlink.com 1.10,2013-09-27 21:57:00,
2013-09-27 18:12:00,80.5,72.0,29.89,NNW,343,3.0,6.0,74,0.00,,,0.00,weatherlink.com 1.10,2013-09-27 22:12:00,
2013-09-27 18:27:00,80.2,71.0,29.89,North,8,5.0,7.0,74,0.00,,,0.00,weatherlink.com 1.10,2013-09-27 22:27:00,
2013-09-27 18:42:00,79.6,71.0,29.89,NE,42,1.0,6.0,74,0.00,,,0.00,weatherlink.com 1.10,2013-09-27 22:42:00,
2013-09-27 18:57:00,79.1,70.0,29.89,NNE,32,2.0,7.0,74,0.00,,,0.00,weatherlink.com 1.10,2013-09-27 22:57:00,
2013-09-27 19:12:00,78.7,70.0,29.90,ENE,72,1.0,4.0,75,0.00,,,0.00,weatherlink.com 1.10,2013-09-27 23:12:00,
2013-09-27 19:27:00,78.4,70.0,29.90,NNE,25,4.0,6.0,76,0.00,,,0.00,weatherlink.com 1.10,2013-09-27 23:27:00,
2013-09-27 19:42:00,78.0,70.0,29.90,East,96,0.0,5.0,77,0.00,,,0.00,weatherlink.com 1.10,2013-09-27 23:42:00,
2013-09-27 19:57:00,77.6,70.0,29.90,NNE,19,0.0,4.0,78,0.00,,,0.00,weatherlink.com 1.10,2013-09-27 23:57:00,
2013-09-27 20:12:00,77.3,70.0,29.91,NE,51,0.0,3.0,79,0.00,,,0.00,weatherlink.com 1.10,2013-09-28 00:12:00,
2013-09-27 20:27:00,77.0,70.0,29.92,NNE,28,0.0,2.0,80,0.00,,,0.00,weatherlink.com 1.10,2013-09-28 00:27:00,
2013-09-27 20:42:00,77.0,70.0,29.93,NNE,28,0.0,0.0,80,0.00,,,0.00,weatherlink.com 1.10,2013-09-28 00:42:00,
2013-09-27 20:57:00,77.0,70.0,29.94,NNE,32,0.0,2.0,80,0.00,,,0.00,weatherlink.com 1.10,2013-09-28 00:57:00,
2013-09-27 21:12:00,76.6,71.0,29.94,NNE,22,0.0,4.0,82,0.00,,,0.00,weatherlink.com 1.10,2013-09-28 01:12:00,
2013-09-27 21:27:00,76.1,71.0,29.95,NNE,26,0.0,0.0,84,0.00,,,0.00,weatherlink.com 1.10,2013-09-28 01:27:00,
2013-09-27 21:42:00,75.6,71.0,29.95,NE,49,3.0,7.0,85,0.00,,,0.00,weatherlink.com 1.10,2013-09-28 01:42:00,
2013-09-27 21:58:00,75.3,71.0,29.96,NE,43,3.0,5.0,85,0.00,,,0.00,weatherlink.com 1.10,2013-09-28 01:58:00,
2013-09-27 22:12:00,75.1,71.0,29.96,North,359,1.0,5.0,86,0.00,,,0.00,weatherlink.com 1.10,2013-09-28 02:12:00,
2013-09-27 22:27:00,74.6,71.0,29.96,NE,39,0.0,3.0,88,0.00,,,0.00,weatherlink.com 1.10,2013-09-28 02:27:00,
2013-09-27 22:42:00,74.3,71.0,29.96,NE,44,6.0,7.0,88,0.00,,,0.00,weatherlink.com 1.10,2013-09-28 02:42:00,
2013-09-27 22:57:00,74.1,71.0,29.96,NNE,17,3.0,4.0,89,0.00,,,0.00,weatherlink.com 1.10,2013-09-28 02:57:00,
2013-09-27 23:12:00,74.2,71.0,29.96,NNE,19,1.0,4.0,89,0.00,,,0.00,weatherlink.com 1.10,2013-09-28 03:12:00,
2013-09-27 23:27:00,74.4,71.0,29.96,NW,324,2.0,3.0,89,0.00,,,0.00,weatherlink.com 1.10,2013-09-28 03:27:00,
2013-09-27 23:42:00,74.5,71.0,29.96,NNW,345,2.0,4.0,89,0.00,,,0.00,weatherlink.com 1.10,2013-09-28 03:42:00,
2013-09-27 23:57:00,74.4,71.0,29.96,North,360,6.0,7.0,89,0.00,,,0.00,weatherlink.com 1.10,2013-09-28 03:57:00,